createdAt,value
2018-09-14T00:00:27.000Z,12.36
2018-09-14T00:01:27.013Z,12.38
2018-09-14T00:02:27.018Z,12.44
2018-09-14T00:03:26.966Z,12.38
2018-09-14T00:04:26.956Z,12.38
2018-09-14T00:05:26.944Z,12.31
2018-09-14T00:06:26.934Z,12.33
2018-09-14T00:07:26.945Z,12.23
2018-09-14T00:08:26.921Z,12.26
2018-09-14T00:09:26.898Z,12.31
2018-09-14T00:10:26.887Z,12.22
2018-09-14T00:11:26.881Z,12.29
2018-09-14T00:12:26.891Z,12.25
2018-09-14T00:13:26.853Z,12.23
2018-09-14T00:14:26.847Z,12.21
2018-09-14T00:15:26.831Z,12.23
2018-09-14T00:16:26.822Z,12.21
2018-09-14T00:17:26.834Z,12.19
2018-09-14T00:18:26.801Z,12.15
2018-09-14T00:19:26.788Z,12.11
2018-09-14T00:20:26.785Z,12.11
2018-09-14T00:21:26.767Z,12.11
2018-09-14T00:22:26.779Z,12.12
2018-09-14T00:23:26.743Z,12.04
2018-09-14T00:24:26.731Z,12.11
2018-09-14T00:25:26.719Z,12.03
2018-09-14T00:26:26.719Z,12.07
2018-09-14T00:27:26.725Z,12.04
2018-09-14T00:28:26.685Z,12.05
2018-09-14T00:29:26.677Z,12.07
2018-09-14T00:30:26.663Z,12.11
2018-09-14T00:31:26.654Z,12.05
2018-09-14T00:32:26.675Z,12.12
2018-09-14T00:33:26.629Z,12.05
2018-09-14T00:34:26.624Z,12.07
2018-09-14T00:35:26.608Z,12.08
2018-09-14T00:36:26.599Z,12.11
2018-09-14T00:37:26.610Z,12.08
2018-09-14T00:38:26.586Z,12.08
2018-09-14T00:39:26.562Z,12.01
2018-09-14T00:40:26.552Z,12.01
2018-09-14T00:41:26.540Z,11.94
2018-09-14T00:42:26.553Z,12.00
2018-09-14T00:43:26.519Z,11.98
2018-09-14T00:44:26.518Z,11.94
2018-09-14T00:45:26.496Z,11.98
2018-09-14T00:46:26.483Z,11.93
2018-09-14T00:47:26.498Z,11.88
2018-09-14T00:48:26.461Z,11.93
2018-09-14T00:49:26.453Z,11.90
2018-09-14T00:50:26.455Z,11.75
2018-09-14T00:51:26.430Z,11.85
2018-09-14T00:52:26.442Z,11.78
2018-09-14T00:53:26.408Z,11.90
2018-09-14T00:54:26.394Z,11.75
2018-09-14T00:55:26.384Z,11.84
2018-09-14T00:56:26.385Z,11.78
2018-09-14T00:57:26.386Z,11.81
2018-09-14T00:58:26.352Z,11.88
2018-09-14T00:59:26.344Z,11.81
2018-09-14T01:00:26.335Z,11.78
2018-09-14T01:01:26.319Z,11.84
2018-09-14T01:02:26.344Z,11.77
2018-09-14T01:03:26.295Z,11.78
2018-09-14T01:04:26.284Z,11.77
2018-09-14T01:05:26.272Z,11.77
2018-09-14T01:06:26.262Z,11.77
2018-09-14T01:07:26.279Z,11.70
2018-09-14T01:08:26.252Z,11.74
2018-09-14T01:09:26.228Z,11.67
2018-09-14T01:10:26.217Z,11.75
2018-09-14T01:11:26.205Z,11.72
2018-09-14T01:12:26.220Z,11.69
2018-09-14T01:13:26.183Z,11.69
2018-09-14T01:14:26.229Z,11.63
2018-09-14T01:15:26.161Z,11.64
2018-09-14T01:16:26.149Z,11.64
2018-09-14T01:17:26.162Z,11.60
2018-09-14T01:18:26.128Z,11.57
2018-09-14T01:19:26.115Z,11.46
2018-09-14T01:20:26.105Z,11.48
2018-09-14T01:21:26.098Z,11.44
2018-09-14T01:22:26.106Z,11.44
2018-09-14T01:23:26.072Z,11.39
2018-09-14T01:24:26.115Z,11.45
2018-09-14T01:25:26.051Z,11.44
2018-09-14T01:26:26.044Z,11.46
2018-09-14T01:27:26.065Z,11.48
2018-09-14T01:28:26.019Z,11.46
2018-09-14T01:29:26.018Z,11.44
2018-09-14T01:30:25.998Z,11.46
2018-09-14T01:31:25.997Z,11.45
2018-09-14T01:32:26.005Z,11.38
2018-09-14T01:33:25.967Z,11.49
2018-09-14T01:34:25.984Z,11.42
2018-09-14T01:35:25.944Z,11.36
2018-09-14T01:36:25.934Z,11.38
2018-09-14T01:37:25.948Z,11.36
2018-09-14T01:38:25.923Z,11.36
2018-09-14T01:39:25.897Z,11.38
2018-09-14T01:40:25.889Z,11.33
2018-09-14T01:41:25.901Z,11.24
2018-09-14T01:42:25.897Z,11.38
2018-09-14T01:43:25.887Z,11.35
2018-09-14T01:44:25.849Z,11.24
2018-09-14T01:45:25.825Z,11.27
2018-09-14T01:46:25.820Z,11.27
2018-09-14T01:47:25.826Z,11.39
2018-09-14T01:48:25.792Z,11.19
2018-09-14T01:49:25.803Z,11.24
2018-09-14T01:50:25.769Z,11.24
2018-09-14T01:51:25.761Z,11.28
2018-09-14T01:52:25.750Z,11.31
2018-09-14T01:53:25.759Z,11.28
2018-09-14T01:54:25.737Z,11.30
2018-09-14T01:55:25.712Z,11.30
2018-09-14T01:56:25.701Z,11.30
2018-09-14T01:57:25.693Z,11.27
2018-09-14T01:58:25.703Z,11.30
2018-09-14T01:59:25.669Z,11.20
2018-09-14T02:00:25.673Z,11.28
2018-09-14T02:01:25.652Z,11.28
2018-09-14T02:02:25.636Z,11.20
2018-09-14T02:03:25.668Z,11.26
2018-09-14T02:04:25.612Z,11.24
2018-09-14T02:05:25.602Z,11.24
2018-09-14T02:06:25.601Z,11.21
2018-09-14T02:07:25.579Z,11.17
2018-09-14T02:08:25.591Z,11.23
2018-09-14T02:09:25.556Z,11.17
2018-09-14T02:10:25.545Z,11.19
2018-09-14T02:11:25.536Z,11.23
2018-09-14T02:12:25.531Z,11.12
2018-09-14T02:13:25.535Z,11.16
2018-09-14T02:14:25.502Z,11.12
2018-09-14T02:15:25.489Z,11.12
2018-09-14T02:16:25.478Z,11.12
2018-09-14T02:17:25.466Z,11.05
2018-09-14T02:18:25.493Z,11.06
2018-09-14T02:19:25.465Z,11.03
2018-09-14T02:20:25.435Z,11.08
2018-09-14T02:21:25.423Z,11.06
2018-09-14T02:22:25.411Z,11.03
2018-09-14T02:23:25.424Z,11.02
2018-09-14T02:24:25.402Z,11.02
2018-09-14T02:25:25.383Z,11.02
2018-09-14T02:26:25.370Z,11.01
2018-09-14T02:27:25.355Z,10.99
2018-09-14T02:28:25.373Z,10.99
2018-09-14T02:29:25.333Z,11.01
2018-09-14T02:30:25.335Z,10.98
2018-09-14T02:31:25.310Z,11.03
2018-09-14T02:32:25.299Z,10.90
2018-09-14T02:33:25.312Z,10.95
2018-09-14T02:34:25.277Z,10.91
2018-09-14T02:35:25.267Z,10.94
2018-09-14T02:36:25.270Z,10.91
2018-09-14T02:37:25.244Z,10.98
2018-09-14T02:38:25.257Z,10.93
2018-09-14T02:39:25.222Z,10.91
2018-09-14T02:40:25.211Z,10.98
2018-09-14T02:41:25.198Z,10.93
2018-09-14T02:42:25.200Z,10.93
2018-09-14T02:43:25.201Z,10.93
2018-09-14T02:44:25.166Z,10.93
2018-09-14T02:45:25.153Z,10.94
2018-09-14T02:46:25.147Z,10.95
2018-09-14T02:47:25.132Z,10.93
2018-09-14T02:48:25.153Z,10.83
2018-09-14T02:49:25.155Z,10.83
2018-09-14T02:50:25.102Z,10.84
2018-09-14T02:51:25.091Z,10.91
2018-09-14T02:52:25.076Z,10.78
2018-09-14T02:53:25.090Z,10.90
2018-09-14T02:54:25.062Z,10.86
2018-09-14T02:55:25.042Z,10.88
2018-09-14T02:56:25.030Z,10.83
2018-09-14T02:57:25.035Z,10.84
2018-09-14T02:58:25.033Z,10.80
2018-09-14T02:59:24.997Z,10.81
2018-09-14T03:00:24.993Z,10.78
2018-09-14T03:01:24.977Z,10.75
2018-09-14T03:02:24.964Z,10.83
2018-09-14T03:03:24.978Z,10.81
2018-09-14T03:04:24.943Z,10.80
2018-09-14T03:05:24.930Z,10.78
2018-09-14T03:06:24.935Z,10.80
2018-09-14T03:07:24.928Z,10.69
2018-09-14T03:08:24.958Z,10.69
2018-09-14T03:09:24.886Z,10.68
2018-09-14T03:10:24.920Z,10.68
2018-09-14T03:11:24.864Z,10.70
2018-09-14T03:12:24.871Z,10.65
2018-09-14T03:13:24.867Z,10.62
2018-09-14T03:14:24.838Z,10.65
2018-09-14T03:15:24.819Z,10.60
2018-09-14T03:16:24.828Z,10.57
2018-09-14T03:17:24.796Z,10.62
2018-09-14T03:18:24.829Z,10.57
2018-09-14T03:19:24.774Z,10.60
2018-09-14T03:20:24.763Z,10.52
2018-09-14T03:21:24.753Z,10.57
2018-09-14T03:22:24.741Z,10.52
2018-09-14T03:23:24.752Z,10.47
2018-09-14T03:24:24.727Z,10.54
2018-09-14T03:25:24.707Z,10.57
2018-09-14T03:26:24.695Z,10.57
2018-09-14T03:27:24.685Z,10.55
2018-09-14T03:28:24.702Z,10.54
2018-09-14T03:29:24.661Z,10.46
2018-09-14T03:30:24.657Z,10.52
2018-09-14T03:31:24.643Z,10.47
2018-09-14T03:32:24.630Z,10.49
2018-09-14T03:33:24.621Z,10.42
2018-09-14T03:34:24.630Z,10.38
2018-09-14T03:35:24.595Z,10.44
2018-09-14T03:36:24.596Z,10.35
2018-09-14T03:37:24.572Z,10.35
2018-09-14T03:38:24.564Z,10.38
2018-09-14T03:39:24.648Z,10.42
2018-09-14T03:40:24.545Z,10.42
2018-09-14T03:41:24.527Z,10.32
2018-09-14T03:42:24.530Z,10.35
2018-09-14T03:43:24.508Z,10.32
2018-09-14T03:44:24.517Z,10.43
2018-09-14T03:45:24.483Z,10.29
2018-09-14T03:46:24.473Z,10.25
2018-09-14T03:47:24.461Z,10.22
2018-09-14T03:48:24.463Z,10.22
2018-09-14T03:49:24.463Z,10.25
2018-09-14T03:50:24.427Z,10.24
2018-09-14T03:51:24.417Z,10.32
2018-09-14T03:52:24.406Z,10.32
2018-09-14T03:53:24.401Z,10.29
2018-09-14T03:54:24.416Z,10.24
2018-09-14T03:55:24.370Z,10.13
2018-09-14T03:56:24.361Z,10.16
2018-09-14T03:57:24.413Z,10.16
2018-09-14T03:58:24.340Z,10.11
2018-09-14T03:59:24.350Z,10.06
2018-09-14T04:00:24.333Z,10.06
2018-09-14T04:01:24.304Z,10.07
2018-09-14T04:02:24.293Z,10.17
2018-09-14T04:03:24.284Z,10.10
2018-09-14T04:04:24.298Z,10.16
2018-09-14T04:05:24.266Z,10.16
2018-09-14T04:06:24.253Z,10.11
2018-09-14T04:07:24.237Z,10.09
2018-09-14T04:08:24.227Z,10.13
2018-09-14T04:09:24.239Z,10.13
2018-09-14T04:10:24.204Z,10.10
2018-09-14T04:11:24.192Z,10.06
2018-09-14T04:12:24.195Z,10.04
2018-09-14T04:13:24.174Z,10.02
2018-09-14T04:14:24.185Z,10.02
2018-09-14T04:15:24.148Z,10.06
2018-09-14T04:16:24.137Z,10.04
2018-09-14T04:17:24.125Z,9.99
2018-09-14T04:18:24.126Z,10.04
2018-09-14T04:19:24.126Z,9.96
2018-09-14T04:20:24.094Z,9.86
2018-09-14T04:21:24.090Z,9.89
2018-09-14T04:22:24.071Z,9.86
2018-09-14T04:23:24.088Z,9.78
2018-09-14T04:24:24.085Z,9.85
2018-09-14T04:25:24.049Z,9.75
2018-09-14T04:26:24.025Z,9.78
2018-09-14T04:27:24.013Z,9.74
2018-09-14T04:28:24.003Z,9.74
2018-09-14T04:29:24.016Z,9.74
2018-09-14T04:30:23.980Z,9.86
2018-09-14T04:31:23.986Z,9.85
2018-09-14T04:32:23.980Z,9.83
2018-09-14T04:33:23.948Z,9.73
2018-09-14T04:34:23.963Z,9.85
2018-09-14T04:35:23.928Z,9.89
2018-09-14T04:36:23.921Z,9.98
2018-09-14T04:37:23.903Z,9.98
2018-09-14T04:38:23.916Z,10.11
2018-09-14T04:39:23.909Z,10.16
2018-09-14T04:40:23.871Z,10.28
2018-09-14T04:41:23.857Z,10.28
2018-09-14T04:42:23.847Z,10.35
2018-09-14T04:43:23.836Z,10.34
2018-09-14T04:44:23.866Z,10.38
2018-09-14T04:45:23.813Z,10.54
2018-09-14T04:46:23.824Z,10.49
2018-09-14T04:47:23.791Z,10.57
2018-09-14T04:48:23.783Z,10.68
2018-09-14T04:49:23.794Z,10.81
2018-09-14T04:50:23.768Z,10.73
2018-09-14T04:51:23.827Z,10.94
2018-09-14T04:52:23.736Z,10.94
2018-09-14T04:53:23.727Z,11.08
2018-09-14T04:54:23.737Z,11.16
2018-09-14T04:55:23.705Z,11.27
2018-09-14T04:56:23.708Z,11.26
2018-09-14T04:57:23.766Z,11.31
2018-09-14T04:58:23.666Z,11.24
2018-09-14T04:59:23.681Z,11.23
2018-09-14T05:00:23.648Z,11.28
2018-09-14T05:01:23.636Z,11.38
2018-09-14T05:02:23.637Z,11.51
2018-09-14T05:03:23.651Z,11.41
2018-09-14T05:04:23.625Z,11.60
2018-09-14T05:05:23.590Z,11.60
2018-09-14T05:06:23.577Z,11.49
2018-09-14T05:07:23.569Z,11.56
2018-09-14T05:08:23.566Z,11.60
2018-09-14T05:09:23.569Z,11.64
2018-09-14T05:10:23.537Z,11.62
2018-09-14T05:11:23.522Z,11.49
2018-09-14T05:12:23.511Z,11.53
2018-09-14T05:13:23.502Z,11.54
2018-09-14T05:14:23.525Z,11.41
2018-09-14T05:15:23.478Z,11.44
2018-09-14T05:16:23.468Z,11.38
2018-09-14T05:17:23.454Z,11.39
2018-09-14T05:18:23.444Z,11.51
2018-09-14T05:19:23.436Z,11.45
2018-09-14T05:20:23.457Z,11.49
2018-09-14T05:21:23.411Z,11.51
2018-09-14T05:22:23.401Z,11.56
2018-09-14T05:23:23.388Z,11.56
2018-09-14T05:24:23.432Z,11.62
2018-09-14T05:25:23.404Z,11.56
2018-09-14T05:26:23.356Z,11.59
2018-09-14T05:27:23.344Z,11.57
2018-09-14T05:28:23.348Z,11.63
2018-09-14T05:29:23.323Z,11.59
2018-09-14T05:30:23.334Z,11.62
2018-09-14T05:31:23.310Z,11.63
2018-09-14T05:32:23.292Z,11.62
2018-09-14T05:33:24.264Z,11.51
2018-09-14T05:34:24.264Z,11.54
2018-09-14T05:35:23.279Z,11.60
2018-09-14T05:36:23.244Z,11.59
2018-09-14T05:37:23.237Z,11.60
2018-09-14T05:38:23.256Z,11.60
2018-09-14T05:39:23.210Z,11.57
2018-09-14T05:40:23.223Z,11.62
2018-09-14T05:41:23.187Z,11.62
2018-09-14T05:42:23.175Z,11.69
2018-09-14T05:43:23.182Z,11.72
2018-09-14T05:44:23.153Z,11.78
2018-09-14T05:45:23.165Z,11.77
2018-09-14T05:46:23.132Z,11.77
2018-09-14T05:47:23.123Z,11.88
2018-09-14T05:48:23.109Z,11.88
2018-09-14T05:49:23.111Z,11.81
2018-09-14T05:50:23.110Z,11.84
2018-09-14T05:51:23.076Z,11.88
2018-09-14T05:52:23.103Z,11.96
2018-09-14T05:53:23.053Z,12.00
2018-09-14T05:54:23.048Z,11.98
2018-09-14T05:55:23.064Z,12.05
2018-09-14T05:56:23.027Z,12.08
2018-09-14T05:57:23.014Z,12.07
2018-09-14T05:58:22.997Z,12.07
2018-09-14T05:59:22.989Z,12.12
2018-09-14T06:00:22.998Z,12.21
2018-09-14T06:01:22.963Z,12.16
2018-09-14T06:02:22.961Z,12.31
2018-09-14T06:03:22.941Z,12.25
2018-09-14T06:04:22.931Z,12.16
2018-09-14T06:05:22.944Z,12.31
2018-09-14T06:06:22.912Z,12.30
2018-09-14T06:07:22.903Z,12.25
2018-09-14T06:08:22.887Z,12.34
2018-09-14T06:09:22.878Z,12.40
2018-09-14T06:10:22.898Z,12.41
2018-09-14T06:11:22.871Z,12.38
2018-09-14T06:12:22.844Z,12.43
2018-09-14T06:13:22.854Z,12.56
2018-09-14T06:14:22.818Z,12.58
2018-09-14T06:15:22.830Z,12.59
2018-09-14T06:16:22.800Z,12.59
2018-09-14T06:17:22.785Z,12.56
2018-09-14T06:18:22.773Z,12.71
2018-09-14T06:19:22.763Z,12.63
2018-09-14T06:20:22.778Z,12.73
2018-09-14T06:21:22.759Z,12.74
2018-09-14T06:22:22.729Z,12.73
2018-09-14T06:23:22.719Z,12.84
2018-09-14T06:24:22.718Z,12.76
2018-09-14T06:25:22.719Z,12.84
2018-09-14T06:26:22.685Z,12.85
2018-09-14T06:27:22.674Z,12.91
2018-09-14T06:28:22.668Z,12.88
2018-09-14T06:29:22.658Z,12.95
2018-09-14T06:30:22.788Z,12.95
2018-09-14T06:31:22.667Z,12.95
2018-09-14T06:32:22.637Z,13.04
2018-09-14T06:33:22.629Z,13.03
2018-09-14T06:34:22.611Z,13.06
2018-09-14T06:35:22.637Z,13.14
2018-09-14T06:36:22.589Z,13.24
2018-09-14T06:37:22.566Z,13.31
2018-09-14T06:38:22.673Z,13.39
2018-09-14T06:39:22.552Z,13.44
2018-09-14T06:40:22.552Z,13.53
2018-09-14T06:41:22.533Z,13.61
2018-09-14T06:42:22.534Z,13.63
2018-09-14T06:43:22.502Z,13.63
2018-09-14T06:44:22.506Z,13.62
2018-09-14T06:45:22.523Z,13.83
2018-09-14T06:46:22.460Z,13.69
2018-09-14T06:47:22.465Z,13.83
2018-09-14T06:48:22.439Z,13.79
2018-09-14T06:49:22.433Z,13.83
2018-09-14T06:50:22.429Z,13.81
2018-09-14T06:51:22.429Z,13.75
2018-09-14T06:52:22.395Z,13.87
2018-09-14T06:53:22.457Z,13.87
2018-09-14T06:54:22.370Z,13.96
2018-09-14T06:55:22.392Z,13.91
2018-09-14T06:56:22.352Z,13.94
2018-09-14T06:57:22.349Z,13.98
2018-09-14T06:58:22.326Z,13.93
2018-09-14T06:59:22.320Z,13.94
2018-09-14T07:00:22.402Z,13.93
2018-09-14T07:01:22.343Z,13.99
2018-09-14T07:02:22.296Z,13.98
2018-09-14T07:03:22.277Z,13.94
2018-09-14T07:04:22.299Z,13.93
2018-09-14T07:05:22.262Z,13.94
2018-09-14T07:06:22.311Z,13.93
2018-09-14T07:07:22.225Z,14.02
2018-09-14T07:08:22.240Z,14.01
2018-09-14T07:09:22.204Z,13.93
2018-09-14T07:10:22.195Z,13.99
2018-09-14T07:11:22.263Z,13.98
2018-09-14T07:12:22.176Z,13.94
2018-09-14T07:13:22.194Z,13.94
2018-09-14T07:14:22.166Z,13.96
2018-09-14T07:15:22.160Z,13.93
2018-09-14T07:16:22.154Z,13.94
2018-09-14T07:17:22.113Z,13.96
2018-09-14T07:18:22.103Z,13.98
2018-09-14T07:19:22.105Z,14.01
2018-09-14T07:20:22.080Z,13.91
2018-09-14T07:21:22.092Z,13.93
2018-09-14T07:22:22.182Z,14.05
2018-09-14T07:23:22.058Z,13.99
2018-09-14T07:24:22.125Z,14.01
2018-09-14T07:25:22.094Z,14.06
2018-09-14T07:26:22.041Z,14.06
2018-09-14T07:27:22.043Z,14.12
2018-09-14T07:28:21.992Z,14.19
2018-09-14T07:29:21.997Z,14.09
2018-09-14T07:30:22.006Z,14.13
2018-09-14T07:31:21.989Z,14.19
2018-09-14T07:32:21.973Z,14.21
2018-09-14T07:33:21.941Z,14.13
2018-09-14T07:34:21.936Z,14.17
2018-09-14T07:35:21.912Z,14.16
2018-09-14T07:36:21.969Z,14.17
2018-09-14T07:37:21.900Z,14.17
2018-09-14T07:38:21.883Z,14.17
2018-09-14T07:39:21.868Z,14.19
2018-09-14T07:40:21.860Z,14.20
2018-09-14T07:41:21.873Z,14.20
2018-09-14T07:42:21.838Z,14.11
2018-09-14T07:43:21.837Z,14.19
2018-09-14T07:44:21.849Z,14.11
2018-09-14T07:45:21.822Z,14.21
2018-09-14T07:46:21.816Z,14.26
2018-09-14T07:47:21.778Z,14.26
2018-09-14T07:48:21.875Z,14.34
2018-09-14T07:49:21.869Z,14.41
2018-09-14T07:50:21.751Z,14.46
2018-09-14T07:51:21.760Z,14.49
2018-09-14T07:52:21.732Z,14.46
2018-09-14T07:53:21.712Z,14.46
2018-09-14T07:54:21.723Z,14.57
2018-09-14T07:55:21.709Z,14.60
2018-09-14T07:56:21.706Z,14.61
2018-09-14T07:57:21.693Z,14.61
2018-09-14T07:58:21.664Z,14.69
2018-09-14T07:59:21.647Z,14.67
2018-09-14T08:00:21.633Z,14.66
2018-09-14T08:01:21.682Z,14.78
2018-09-14T08:02:21.679Z,14.75
2018-09-14T08:03:21.619Z,14.75
2018-09-14T08:04:21.588Z,14.79
2018-09-14T08:05:21.583Z,14.91
2018-09-14T08:06:21.592Z,14.93
2018-09-14T08:07:21.558Z,15.01
2018-09-14T08:08:21.625Z,15.12
2018-09-14T08:09:21.536Z,15.20
2018-09-14T08:10:21.525Z,15.20
2018-09-14T08:11:21.535Z,15.18
2018-09-14T08:12:21.523Z,15.34
2018-09-14T08:13:21.683Z,15.35
2018-09-14T08:14:21.484Z,15.25
2018-09-14T08:15:21.472Z,15.38
2018-09-14T08:16:21.478Z,15.37
2018-09-14T08:17:21.443Z,15.40
2018-09-14T08:18:21.449Z,15.48
2018-09-14T08:19:21.429Z,15.55
2018-09-14T08:20:21.413Z,15.55
2018-09-14T08:21:21.586Z,15.40
2018-09-14T08:22:21.390Z,15.38
2018-09-14T08:23:21.390Z,15.30
2018-09-14T08:24:21.376Z,15.33
2018-09-14T08:25:21.361Z,15.31
2018-09-14T08:26:21.371Z,15.23
2018-09-14T08:27:21.438Z,15.33
2018-09-14T08:28:21.329Z,15.25
2018-09-14T08:29:21.308Z,15.13
2018-09-14T08:30:21.299Z,15.07
2018-09-14T08:31:21.309Z,15.05
2018-09-14T08:32:21.302Z,15.00
2018-09-14T08:33:21.265Z,15.01
2018-09-14T08:34:21.283Z,15.09
2018-09-14T08:35:21.243Z,15.04
2018-09-14T08:36:21.312Z,14.95
2018-09-14T08:37:21.230Z,15.03
2018-09-14T08:38:21.232Z,15.09
2018-09-14T08:39:21.198Z,15.11
2018-09-14T08:40:21.191Z,15.13
2018-09-14T08:41:21.282Z,15.23
2018-09-14T08:42:21.197Z,15.30
2018-09-14T08:43:21.217Z,15.33
2018-09-14T08:44:21.196Z,15.34
2018-09-14T08:45:21.147Z,15.38
2018-09-14T08:46:21.129Z,15.52
2018-09-14T08:47:21.194Z,15.52
2018-09-14T08:48:21.136Z,15.48
2018-09-14T08:49:21.091Z,15.53
2018-09-14T08:50:21.092Z,15.58
2018-09-14T08:51:21.075Z,15.55
2018-09-14T08:52:21.076Z,15.59
2018-09-14T08:53:21.052Z,15.64
2018-09-14T08:54:21.033Z,15.70
2018-09-14T08:55:21.020Z,15.66
2018-09-14T08:56:21.007Z,15.66
2018-09-14T08:57:21.030Z,15.77
2018-09-14T08:58:20.990Z,15.77
2018-09-14T08:59:20.974Z,15.84
2018-09-14T09:00:20.962Z,15.89
2018-09-14T09:01:20.960Z,15.85
2018-09-14T09:02:20.965Z,15.85
2018-09-14T09:03:20.952Z,15.96
2018-09-14T09:04:20.917Z,15.99
2018-09-14T09:05:20.908Z,15.96
2018-09-14T09:06:20.903Z,16.07
2018-09-14T09:07:21.079Z,16.03
2018-09-14T09:08:20.874Z,16.10
2018-09-14T09:09:20.862Z,16.16
2018-09-14T09:10:20.849Z,16.16
2018-09-14T09:11:20.977Z,16.32
2018-09-14T09:12:20.855Z,16.29
2018-09-14T09:13:20.841Z,16.37
2018-09-14T09:14:20.808Z,16.42
2018-09-14T09:15:20.793Z,16.41
2018-09-14T09:16:20.790Z,16.42
2018-09-14T09:17:20.829Z,16.37
2018-09-14T09:18:20.764Z,16.54
2018-09-14T09:19:20.814Z,16.54
2018-09-14T09:20:20.737Z,16.50
2018-09-14T09:21:20.792Z,16.59
2018-09-14T09:22:20.776Z,16.63
2018-09-14T09:23:20.792Z,16.70
2018-09-14T09:24:20.697Z,16.73
2018-09-14T09:25:20.683Z,16.73
2018-09-14T09:26:20.675Z,16.80
2018-09-14T09:27:20.697Z,16.91
2018-09-14T09:28:21.270Z,16.99
2018-09-14T09:29:20.641Z,17.09
2018-09-14T09:30:20.708Z,17.06
2018-09-14T09:31:20.635Z,17.07
2018-09-14T09:32:20.628Z,17.03
2018-09-14T09:33:20.721Z,17.10
2018-09-14T09:34:20.594Z,17.06
2018-09-14T09:35:20.584Z,17.14
2018-09-14T09:36:20.567Z,17.22
2018-09-14T09:37:20.570Z,17.18
2018-09-14T09:38:20.563Z,17.32
2018-09-14T09:39:20.525Z,17.35
2018-09-14T09:40:20.514Z,17.35
2018-09-14T09:41:20.527Z,17.40
2018-09-14T09:42:20.519Z,17.51
2018-09-14T09:43:20.564Z,17.68
2018-09-14T09:44:20.475Z,17.71
2018-09-14T09:45:20.464Z,17.77
2018-09-14T09:46:20.453Z,17.89
2018-09-14T09:47:20.460Z,17.98
2018-09-14T09:48:20.440Z,18.11
2018-09-14T09:49:20.415Z,18.26
2018-09-14T09:50:20.401Z,18.50
2018-09-14T09:51:20.533Z,18.75
2018-09-14T09:52:20.405Z,18.96
2018-09-14T09:53:20.371Z,19.16
2018-09-14T09:54:20.361Z,19.35
2018-09-14T09:55:20.349Z,19.60
2018-09-14T09:56:20.337Z,19.80
2018-09-14T09:57:20.354Z,20.10
2018-09-14T09:58:20.315Z,20.17
2018-09-14T09:59:20.315Z,20.35
2018-09-14T10:00:20.292Z,20.63
2018-09-14T10:01:20.288Z,20.78
2018-09-14T10:02:20.303Z,20.71
2018-09-14T10:03:20.257Z,20.68
2018-09-14T10:04:20.246Z,20.75
2018-09-14T10:05:20.239Z,20.82
2018-09-14T10:06:20.225Z,20.96
2018-09-14T10:07:20.236Z,20.97
2018-09-14T10:08:20.228Z,20.83
2018-09-14T10:09:20.194Z,20.85
2018-09-14T10:10:20.183Z,21.03
2018-09-14T10:11:20.173Z,21.06
2018-09-14T10:12:20.211Z,20.91
2018-09-14T10:13:20.176Z,20.75
2018-09-14T10:14:20.137Z,20.91
2018-09-14T10:15:20.130Z,20.96
2018-09-14T10:16:20.138Z,21.03
2018-09-14T10:17:20.126Z,20.97
2018-09-14T10:18:20.104Z,20.91
2018-09-14T10:19:20.080Z,21.00
2018-09-14T10:20:20.068Z,20.96
2018-09-14T10:21:20.164Z,20.96
2018-09-14T10:22:20.084Z,20.91
2018-09-14T10:23:20.073Z,20.83
2018-09-14T10:24:20.025Z,20.72
2018-09-14T10:25:20.075Z,20.76
2018-09-14T10:26:20.107Z,20.66
2018-09-14T10:27:20.101Z,20.53
2018-09-14T10:28:20.015Z,20.48
2018-09-14T10:29:20.776Z,20.33
2018-09-14T10:30:19.958Z,20.17
2018-09-14T10:31:19.947Z,20.23
2018-09-14T10:32:20.089Z,20.22
2018-09-14T10:33:19.958Z,20.40
2018-09-14T10:34:19.914Z,20.50
2018-09-14T10:35:19.978Z,20.53
2018-09-14T10:36:19.949Z,20.61
2018-09-14T10:37:19.891Z,20.71
2018-09-14T10:38:19.911Z,20.72
2018-09-14T10:39:19.859Z,20.76
2018-09-14T10:40:19.874Z,20.66
2018-09-14T10:41:19.855Z,20.73
2018-09-14T10:42:19.828Z,20.61
2018-09-14T10:43:19.849Z,20.50
2018-09-14T10:44:19.802Z,20.30
2018-09-14T10:45:19.881Z,20.33
2018-09-14T10:46:19.780Z,20.38
2018-09-14T10:47:19.771Z,20.34
2018-09-14T10:48:19.791Z,20.37
2018-09-14T10:49:19.754Z,20.40
2018-09-14T10:50:19.736Z,20.34
2018-09-14T10:51:19.725Z,20.15
2018-09-14T10:52:19.729Z,20.25
2018-09-14T10:53:19.728Z,20.13
2018-09-14T10:54:19.692Z,20.34
2018-09-14T10:55:19.695Z,20.63
2018-09-14T10:56:19.716Z,20.69
2018-09-14T10:57:19.660Z,20.85
2018-09-14T10:58:20.317Z,20.94
2018-09-14T10:59:19.667Z,20.79
2018-09-14T11:00:19.714Z,21.03
2018-09-14T11:01:19.636Z,21.27
2018-09-14T11:02:19.609Z,21.31
2018-09-14T11:03:19.618Z,21.48
2018-09-14T11:04:19.700Z,21.82
2018-09-14T11:05:19.580Z,22.12
2018-09-14T11:06:19.564Z,22.29
2018-09-14T11:07:19.700Z,22.48
2018-09-14T11:08:19.606Z,22.67
2018-09-14T11:09:19.580Z,22.88
2018-09-14T11:10:19.525Z,23.07
2018-09-14T11:11:19.514Z,23.11
2018-09-14T11:12:19.506Z,23.07
2018-09-14T11:13:19.506Z,23.22
2018-09-14T11:14:19.473Z,23.41
2018-09-14T11:15:19.460Z,23.56
2018-09-14T11:16:19.452Z,23.64
2018-09-14T11:17:19.464Z,23.79
2018-09-14T11:18:19.449Z,23.62
2018-09-14T11:19:19.419Z,23.56
2018-09-14T11:20:19.404Z,23.57
2018-09-14T11:21:19.398Z,23.77
2018-09-14T11:22:19.387Z,23.92
2018-09-14T11:23:19.401Z,24.14
2018-09-14T11:24:19.421Z,24.16
2018-09-14T11:25:19.451Z,24.14
2018-09-14T11:26:19.338Z,24.42
2018-09-14T11:27:19.333Z,24.23
2018-09-14T11:28:19.352Z,24.46
2018-09-14T11:29:19.316Z,24.70
2018-09-14T11:30:19.294Z,24.92
2018-09-14T11:31:19.286Z,24.93
2018-09-14T11:32:19.319Z,25.30
2018-09-14T11:33:19.302Z,25.71
2018-09-14T11:34:19.255Z,26.03
2018-09-14T11:35:19.241Z,26.78
2018-09-14T11:36:19.231Z,27.71
2018-09-14T11:37:19.235Z,28.92
2018-09-14T11:38:19.334Z,30.00
2018-09-14T11:39:19.202Z,31.09
2018-09-14T11:40:19.208Z,31.82
2018-09-14T11:41:19.175Z,32.17
2018-09-14T11:42:19.175Z,32.16
2018-09-14T11:43:19.175Z,32.31
2018-09-14T11:44:19.142Z,33.22
2018-09-14T11:45:19.217Z,32.65
2018-09-14T11:46:19.123Z,31.23
2018-09-14T11:47:19.109Z,30.56
2018-09-14T11:48:19.124Z,29.42
2018-09-14T11:49:19.089Z,28.85
2018-09-14T11:50:19.075Z,28.15
2018-09-14T11:51:19.070Z,27.39
2018-09-14T11:52:19.058Z,26.72
2018-09-14T11:53:19.048Z,25.89
2018-09-14T11:54:19.185Z,25.39
2018-09-14T11:55:19.020Z,26.16
2018-09-14T11:56:19.052Z,25.83
2018-09-14T11:57:19.005Z,25.34
2018-09-14T11:58:19.809Z,24.83
2018-09-14T11:59:18.979Z,24.80
2018-09-14T12:00:18.973Z,24.53
2018-09-14T12:01:19.018Z,24.29
2018-09-14T12:02:18.952Z,24.27
2018-09-14T12:03:18.939Z,24.45
2018-09-14T12:04:19.006Z,24.36
2018-09-14T12:05:18.945Z,24.37
2018-09-14T12:06:18.909Z,24.08
2018-09-14T12:07:18.918Z,24.06
2018-09-14T12:08:18.888Z,23.97
2018-09-14T12:09:18.902Z,24.00
2018-09-14T12:10:18.873Z,23.56
2018-09-14T12:11:18.848Z,23.62
2018-09-14T12:12:18.860Z,23.44
2018-09-14T12:13:18.829Z,23.29
2018-09-14T12:14:18.852Z,23.18
2018-09-14T12:15:18.805Z,23.14
2018-09-14T12:16:18.794Z,24.59
2018-09-14T12:17:18.784Z,27.01
2018-09-14T12:18:18.782Z,29.49
2018-09-14T12:19:18.789Z,31.13
2018-09-14T12:20:18.750Z,31.98
2018-09-14T12:21:18.744Z,33.22
2018-09-14T12:22:18.752Z,34.42
2018-09-14T12:23:18.718Z,35.58
2018-09-14T12:24:18.731Z,36.43
2018-09-14T12:25:18.719Z,37.20
2018-09-14T12:26:18.684Z,37.65
2018-09-14T12:27:18.676Z,37.88
2018-09-14T12:28:18.718Z,38.00
2018-09-14T12:29:18.675Z,37.68
2018-09-14T12:30:18.643Z,38.18
2018-09-14T12:31:18.634Z,38.71
2018-09-14T12:32:18.630Z,38.89
2018-09-14T12:33:18.615Z,39.06
2018-09-14T12:34:18.630Z,39.28
2018-09-14T12:35:18.590Z,39.13
2018-09-14T12:36:19.293Z,39.56
2018-09-14T12:37:18.575Z,39.47
2018-09-14T12:38:18.563Z,38.68
2018-09-14T12:39:18.572Z,36.87
2018-09-14T12:40:18.536Z,35.05
2018-09-14T12:41:18.547Z,34.72
2018-09-14T12:42:18.521Z,32.81
2018-09-14T12:43:18.506Z,31.69
2018-09-14T12:44:18.538Z,30.66
2018-09-14T12:45:18.488Z,29.63
2018-09-14T12:46:18.482Z,28.23
2018-09-14T12:47:18.483Z,27.78
2018-09-14T12:48:18.457Z,27.55
2018-09-14T12:49:18.494Z,27.46
2018-09-14T12:50:18.443Z,27.83
2018-09-14T12:51:18.433Z,29.27
2018-09-14T12:52:18.418Z,30.32
2018-09-14T12:53:18.416Z,32.13